sensor_id;sensor_type;location;lat;lon;timestamp;P1;durP1;ratioP1;P2;durP2;ratioP2
11568;SDS011;5840;46.894;15.542;2023-12-20T00:00:29;9.37;;;8.47;;
11568;SDS011;5840;46.894;15.542;2023-12-20T00:02:56;10.97;;;9.60;;
11568;SDS011;5840;46.894;15.542;2023-12-20T00:05:24;10.67;;;9.60;;
11568;SDS011;5840;46.894;15.542;2023-12-20T00:07:51;10.07;;;9.03;;
11568;SDS011;5840;46.894;15.542;2023-12-20T00:10:17;9.50;;;8.43;;
11568;SDS011;5840;46.894;15.542;2023-12-20T00:12:44;9.47;;;8.57;;
11568;SDS011;5840;46.894;15.542;2023-12-20T00:15:11;9.97;;;8.97;;
11568;SDS011;5840;46.894;15.542;2023-12-20T00:17:39;10.23;;;9.23;;
11568;SDS011;5840;46.894;15.542;2023-12-20T00:20:07;10.60;;;9.67;;
11568;SDS011;5840;46.894;15.542;2023-12-20T00:22:34;11.57;;;9.80;;
11568;SDS011;5840;46.894;15.542;2023-12-20T00:25:01;11.87;;;9.47;;
11568;SDS011;5840;46.894;15.542;2023-12-20T00:27:28;11.20;;;9.60;;
11568;SDS011;5840;46.894;15.542;2023-12-20T00:29:55;11.53;;;10.43;;
11568;SDS011;5840;46.894;15.542;2023-12-20T00:32:22;10.43;;;9.43;;
11568;SDS011;5840;46.894;15.542;2023-12-20T00:34:50;12.10;;;10.90;;
11568;SDS011;5840;46.894;15.542;2023-12-20T00:37:17;11.93;;;10.73;;
11568;SDS011;5840;46.894;15.542;2023-12-20T00:39:44;13.13;;;11.83;;
11568;SDS011;5840;46.894;15.542;2023-12-20T00:42:10;10.60;;;9.47;;
11568;SDS011;5840;46.894;15.542;2023-12-20T00:44:37;11.13;;;10.13;;
11568;SDS011;5840;46.894;15.542;2023-12-20T00:47:04;11.27;;;10.00;;
11568;SDS011;5840;46.894;15.542;2023-12-20T00:49:31;11.37;;;10.00;;
11568;SDS011;5840;46.894;15.542;2023-12-20T00:51:59;10.80;;;9.50;;
11568;SDS011;5840;46.894;15.542;2023-12-20T00:54:26;10.63;;;9.43;;
11568;SDS011;5840;46.894;15.542;2023-12-20T00:56:54;9.20;;;8.40;;
11568;SDS011;5840;46.894;15.542;2023-12-20T00:59:20;10.03;;;9.03;;
11568;SDS011;5840;46.894;15.542;2023-12-20T01:01:47;10.47;;;9.03;;
11568;SDS011;5840;46.894;15.542;2023-12-20T01:04:14;9.83;;;8.83;;
11568;SDS011;5840;46.894;15.542;2023-12-20T01:06:41;9.13;;;8.23;;
11568;SDS011;5840;46.894;15.542;2023-12-20T01:09:09;10.30;;;9.10;;
11568;SDS011;5840;46.894;15.542;2023-12-20T01:11:36;10.23;;;9.23;;
11568;SDS011;5840;46.894;15.542;2023-12-20T01:14:03;10.53;;;9.33;;
11568;SDS011;5840;46.894;15.542;2023-12-20T01:16:30;10.20;;;9.20;;
11568;SDS011;5840;46.894;15.542;2023-12-20T01:18:57;10.13;;;8.60;;
11568;SDS011;5840;46.894;15.542;2023-12-20T01:21:24;10.23;;;9.23;;
11568;SDS011;5840;46.894;15.542;2023-12-20T01:23:50;9.40;;;8.40;;
11568;SDS011;5840;46.894;15.542;2023-12-20T01:26:19;9.23;;;8.07;;
11568;SDS011;5840;46.894;15.542;2023-12-20T01:28:46;7.60;;;6.90;;
11568;SDS011;5840;46.894;15.542;2023-12-20T01:31:12;8.20;;;7.40;;
11568;SDS011;5840;46.894;15.542;2023-12-20T01:33:39;8.80;;;7.90;;
11568;SDS011;5840;46.894;15.542;2023-12-20T01:36:06;8.83;;;7.80;;
11568;SDS011;5840;46.894;15.542;2023-12-20T01:38:33;8.80;;;7.97;;
11568;SDS011;5840;46.894;15.542;2023-12-20T01:41:00;8.33;;;7.43;;
11568;SDS011;5840;46.894;15.542;2023-12-20T01:43:29;7.70;;;7.00;;
11568;SDS011;5840;46.894;15.542;2023-12-20T01:45:56;8.20;;;7.43;;
11568;SDS011;5840;46.894;15.542;2023-12-20T01:48:23;7.97;;;7.27;;
11568;SDS011;5840;46.894;15.542;2023-12-20T01:50:51;8.27;;;7.47;;
11568;SDS011;5840;46.894;15.542;2023-12-20T01:53:19;8.40;;;6.70;;
11568;SDS011;5840;46.894;15.542;2023-12-20T01:55:50;8.53;;;7.77;;
11568;SDS011;5840;46.894;15.542;2023-12-20T01:58:18;7.90;;;7.20;;
11568;SDS011;5840;46.894;15.542;2023-12-20T02:00:47;8.37;;;7.47;;
11568;SDS011;5840;46.894;15.542;2023-12-20T02:03:14;8.77;;;7.90;;
11568;SDS011;5840;46.894;15.542;2023-12-20T02:05:42;8.13;;;7.43;;
11568;SDS011;5840;46.894;15.542;2023-12-20T02:08:10;8.50;;;7.80;;
11568;SDS011;5840;46.894;15.542;2023-12-20T02:10:37;9.27;;;7.70;;
11568;SDS011;5840;46.894;15.542;2023-12-20T02:13:05;8.27;;;7.43;;
11568;SDS011;5840;46.894;15.542;2023-12-20T02:15:32;8.00;;;7.20;;
11568;SDS011;5840;46.894;15.542;2023-12-20T02:18:03;8.17;;;7.37;;
11568;SDS011;5840;46.894;15.542;2023-12-20T02:20:31;9.50;;;8.60;;
11568;SDS011;5840;46.894;15.542;2023-12-20T02:22:59;10.17;;;8.47;;
11568;SDS011;5840;46.894;15.542;2023-12-20T02:25:26;9.10;;;8.20;;
11568;SDS011;5840;46.894;15.542;2023-12-20T02:27:52;9.27;;;8.43;;
11568;SDS011;5840;46.894;15.542;2023-12-20T02:30:20;30.30;;;27.17;;
11568;SDS011;5840;46.894;15.542;2023-12-20T02:32:47;9.83;;;9.03;;
11568;SDS011;5840;46.894;15.542;2023-12-20T02:35:15;9.23;;;8.50;;
11568;SDS011;5840;46.894;15.542;2023-12-20T02:37:42;10.27;;;9.27;;
11568;SDS011;5840;46.894;15.542;2023-12-20T02:40:10;9.30;;;8.40;;
11568;SDS011;5840;46.894;15.542;2023-12-20T02:42:37;8.00;;;7.00;;
11568;SDS011;5840;46.894;15.542;2023-12-20T02:45:04;8.17;;;7.47;;
11568;SDS011;5840;46.894;15.542;2023-12-20T02:47:32;8.63;;;7.83;;
11568;SDS011;5840;46.894;15.542;2023-12-20T02:49:59;8.67;;;7.43;;
11568;SDS011;5840;46.894;15.542;2023-12-20T02:52:27;9.10;;;8.30;;
11568;SDS011;5840;46.894;15.542;2023-12-20T02:54:55;10.30;;;9.30;;
11568;SDS011;5840;46.894;15.542;2023-12-20T02:57:23;9.33;;;8.50;;
11568;SDS011;5840;46.894;15.542;2023-12-20T02:59:50;8.47;;;7.60;;
11568;SDS011;5840;46.894;15.542;2023-12-20T03:02:17;9.20;;;7.93;;
11568;SDS011;5840;46.894;15.542;2023-12-20T03:04:43;8.00;;;7.20;;
11568;SDS011;5840;46.894;15.542;2023-12-20T03:07:10;7.53;;;6.90;;
11568;SDS011;5840;46.894;15.542;2023-12-20T03:09:38;7.77;;;7.07;;
11568;SDS011;5840;46.894;15.542;2023-12-20T03:12:05;9.30;;;8.40;;
11568;SDS011;5840;46.894;15.542;2023-12-20T03:14:33;7.77;;;7.07;;
11568;SDS011;5840;46.894;15.542;2023-12-20T03:17:00;7.97;;;7.17;;
11568;SDS011;5840;46.894;15.542;2023-12-20T03:19:27;8.50;;;6.93;;
11568;SDS011;5840;46.894;15.542;2023-12-20T03:21:54;8.93;;;7.00;;
11568;SDS011;5840;46.894;15.542;2023-12-20T03:24:21;7.20;;;6.50;;
11568;SDS011;5840;46.894;15.542;2023-12-20T03:26:48;7.33;;;6.73;;
11568;SDS011;5840;46.894;15.542;2023-12-20T03:29:14;7.60;;;6.90;;
11568;SDS011;5840;46.894;15.542;2023-12-20T03:31:43;7.63;;;6.83;;
11568;SDS011;5840;46.894;15.542;2023-12-20T03:34:10;8.27;;;7.53;;
11568;SDS011;5840;46.894;15.542;2023-12-20T03:36:37;7.37;;;6.77;;
11568;SDS011;5840;46.894;15.542;2023-12-20T03:39:04;7.70;;;6.93;;
11568;SDS011;5840;46.894;15.542;2023-12-20T03:41:31;7.30;;;6.70;;
11568;SDS011;5840;46.894;15.542;2023-12-20T03:43:57;7.43;;;6.80;;
11568;SDS011;5840;46.894;15.542;2023-12-20T03:46:24;7.00;;;6.40;;
11568;SDS011;5840;46.894;15.542;2023-12-20T03:48:52;8.00;;;7.30;;
11568;SDS011;5840;46.894;15.542;2023-12-20T03:51:19;8.07;;;7.30;;
11568;SDS011;5840;46.894;15.542;2023-12-20T03:53:46;7.57;;;6.97;;
11568;SDS011;5840;46.894;15.542;2023-12-20T03:56:13;8.00;;;7.30;;
11568;SDS011;5840;46.894;15.542;2023-12-20T03:58:39;8.00;;;7.23;;
11568;SDS011;5840;46.894;15.542;2023-12-20T04:01:08;7.47;;;6.77;;
11568;SDS011;5840;46.894;15.542;2023-12-20T04:03:37;7.63;;;6.90;;
11568;SDS011;5840;46.894;15.542;2023-12-20T04:06:06;7.87;;;7.07;;
11568;SDS011;5840;46.894;15.542;2023-12-20T04:08:33;8.80;;;7.73;;
11568;SDS011;5840;46.894;15.542;2023-12-20T04:11:00;7.77;;;7.00;;
11568;SDS011;5840;46.894;15.542;2023-12-20T04:13:27;8.67;;;7.77;;
11568;SDS011;5840;46.894;15.542;2023-12-20T04:15:54;7.70;;;6.90;;
11568;SDS011;5840;46.894;15.542;2023-12-20T04:18:21;8.57;;;7.73;;
11568;SDS011;5840;46.894;15.542;2023-12-20T04:20:47;7.13;;;6.43;;
11568;SDS011;5840;46.894;15.542;2023-12-20T04:23:16;7.50;;;6.80;;
11568;SDS011;5840;46.894;15.542;2023-12-20T04:25:43;8.37;;;7.57;;
11568;SDS011;5840;46.894;15.542;2023-12-20T04:28:10;8.33;;;7.53;;
11568;SDS011;5840;46.894;15.542;2023-12-20T04:30:36;8.53;;;7.73;;
11568;SDS011;5840;46.894;15.542;2023-12-20T04:33:03;8.00;;;7.23;;
11568;SDS011;5840;46.894;15.542;2023-12-20T04:35:30;8.53;;;7.73;;
11568;SDS011;5840;46.894;15.542;2023-12-20T04:37:56;9.60;;;8.70;;
11568;SDS011;5840;46.894;15.542;2023-12-20T04:40:24;8.30;;;7.50;;
11568;SDS011;5840;46.894;15.542;2023-12-20T04:42:51;9.20;;;7.93;;
11568;SDS011;5840;46.894;15.542;2023-12-20T04:45:18;8.43;;;7.60;;
11568;SDS011;5840;46.894;15.542;2023-12-20T04:47:45;9.37;;;8.07;;
11568;SDS011;5840;46.894;15.542;2023-12-20T04:50:13;8.53;;;7.80;;
11568;SDS011;5840;46.894;15.542;2023-12-20T04:52:40;8.77;;;7.90;;
11568;SDS011;5840;46.894;15.542;2023-12-20T04:55:07;8.80;;;8.00;;
11568;SDS011;5840;46.894;15.542;2023-12-20T04:57:36;8.90;;;8.10;;
11568;SDS011;5840;46.894;15.542;2023-12-20T05:00:03;8.50;;;7.70;;
11568;SDS011;5840;46.894;15.542;2023-12-20T05:02:33;8.67;;;7.87;;
11568;SDS011;5840;46.894;15.542;2023-12-20T05:05:00;9.23;;;8.03;;
11568;SDS011;5840;46.894;15.542;2023-12-20T05:07:27;9.03;;;8.13;;
11568;SDS011;5840;46.894;15.542;2023-12-20T05:09:54;9.17;;;8.23;;
11568;SDS011;5840;46.894;15.542;2023-12-20T05:12:21;9.13;;;8.23;;
11568;SDS011;5840;46.894;15.542;2023-12-20T05:14:50;9.67;;;8.67;;
11568;SDS011;5840;46.894;15.542;2023-12-20T05:17:18;9.07;;;8.17;;
11568;SDS011;5840;46.894;15.542;2023-12-20T05:19:45;9.23;;;8.33;;
11568;SDS011;5840;46.894;15.542;2023-12-20T05:22:12;8.13;;;7.33;;
11568;SDS011;5840;46.894;15.542;2023-12-20T05:24:39;8.37;;;7.57;;
11568;SDS011;5840;46.894;15.542;2023-12-20T05:27:06;8.23;;;7.40;;
11568;SDS011;5840;46.894;15.542;2023-12-20T05:29:33;8.13;;;7.33;;
11568;SDS011;5840;46.894;15.542;2023-12-20T05:32:01;7.93;;;7.10;;
11568;SDS011;5840;46.894;15.542;2023-12-20T05:34:29;7.97;;;7.17;;
11568;SDS011;5840;46.894;15.542;2023-12-20T05:36:57;8.77;;;7.77;;
11568;SDS011;5840;46.894;15.542;2023-12-20T05:39:24;8.60;;;7.70;;
11568;SDS011;5840;46.894;15.542;2023-12-20T05:41:51;9.40;;;8.50;;
11568;SDS011;5840;46.894;15.542;2023-12-20T05:44:17;9.20;;;8.33;;
11568;SDS011;5840;46.894;15.542;2023-12-20T05:46:44;8.10;;;7.40;;
11568;SDS011;5840;46.894;15.542;2023-12-20T05:49:12;7.00;;;6.40;;
11568;SDS011;5840;46.894;15.542;2023-12-20T05:51:39;19.83;;;14.87;;
11568;SDS011;5840;46.894;15.542;2023-12-20T05:54:07;26.07;;;17.73;;
11568;SDS011;5840;46.894;15.542;2023-12-20T05:56:35;19.93;;;15.77;;
11568;SDS011;5840;46.894;15.542;2023-12-20T05:59:02;26.17;;;18.97;;
11568;SDS011;5840;46.894;15.542;2023-12-20T06:01:29;10.23;;;9.23;;
11568;SDS011;5840;46.894;15.542;2023-12-20T06:03:56;9.07;;;8.27;;
11568;SDS011;5840;46.894;15.542;2023-12-20T06:06:24;10.13;;;9.13;;
11568;SDS011;5840;46.894;15.542;2023-12-20T06:08:51;10.33;;;9.33;;
11568;SDS011;5840;46.894;15.542;2023-12-20T06:11:18;9.80;;;8.33;;
11568;SDS011;5840;46.894;15.542;2023-12-20T06:13:45;8.43;;;7.53;;
11568;SDS011;5840;46.894;15.542;2023-12-20T06:16:11;11.37;;;8.00;;
11568;SDS011;5840;46.894;15.542;2023-12-20T06:18:38;10.23;;;7.87;;
11568;SDS011;5840;46.894;15.542;2023-12-20T06:21:06;13.93;;;11.17;;
11568;SDS011;5840;46.894;15.542;2023-12-20T06:23:34;13.90;;;11.20;;
11568;SDS011;5840;46.894;15.542;2023-12-20T06:26:02;10.33;;;9.43;;
11568;SDS011;5840;46.894;15.542;2023-12-20T06:28:29;9.63;;;8.03;;
11568;SDS011;5840;46.894;15.542;2023-12-20T06:30:56;8.57;;;7.77;;
11568;SDS011;5840;46.894;15.542;2023-12-20T06:33:23;9.13;;;8.33;;
11568;SDS011;5840;46.894;15.542;2023-12-20T06:35:50;8.60;;;7.67;;
11568;SDS011;5840;46.894;15.542;2023-12-20T06:38:17;9.63;;;8.60;;
11568;SDS011;5840;46.894;15.542;2023-12-20T06:40:46;9.70;;;8.20;;
11568;SDS011;5840;46.894;15.542;2023-12-20T06:43:12;9.37;;;8.47;;
11568;SDS011;5840;46.894;15.542;2023-12-20T06:45:39;9.27;;;8.13;;
11568;SDS011;5840;46.894;15.542;2023-12-20T06:48:07;9.17;;;8.33;;
11568;SDS011;5840;46.894;15.542;2023-12-20T06:50:35;19.47;;;17.40;;
11568;SDS011;5840;46.894;15.542;2023-12-20T06:53:05;11.87;;;10.77;;
11568;SDS011;5840;46.894;15.542;2023-12-20T06:55:32;14.90;;;12.57;;
11568;SDS011;5840;46.894;15.542;2023-12-20T06:58:00;12.07;;;10.87;;
11568;SDS011;5840;46.894;15.542;2023-12-20T07:00:27;15.60;;;14.00;;
11568;SDS011;5840;46.894;15.542;2023-12-20T07:02:54;11.47;;;10.37;;
11568;SDS011;5840;46.894;15.542;2023-12-20T07:05:21;9.37;;;8.50;;
11568;SDS011;5840;46.894;15.542;2023-12-20T07:07:48;9.90;;;8.40;;
11568;SDS011;5840;46.894;15.542;2023-12-20T07:10:15;9.57;;;8.17;;
11568;SDS011;5840;46.894;15.542;2023-12-20T07:12:42;9.03;;;8.17;;
11568;SDS011;5840;46.894;15.542;2023-12-20T07:15:11;9.07;;;8.17;;
11568;SDS011;5840;46.894;15.542;2023-12-20T07:17:38;8.93;;;7.23;;
11568;SDS011;5840;46.894;15.542;2023-12-20T07:20:05;8.20;;;7.40;;
11568;SDS011;5840;46.894;15.542;2023-12-20T07:22:35;8.73;;;7.83;;
11568;SDS011;5840;46.894;15.542;2023-12-20T07:25:03;8.67;;;7.93;;
11568;SDS011;5840;46.894;15.542;2023-12-20T07:27:30;7.93;;;7.13;;
11568;SDS011;5840;46.894;15.542;2023-12-20T07:29:57;8.03;;;7.23;;
11568;SDS011;5840;46.894;15.542;2023-12-20T07:32:25;8.43;;;7.73;;
11568;SDS011;5840;46.894;15.542;2023-12-20T07:34:52;8.23;;;7.43;;
11568;SDS011;5840;46.894;15.542;2023-12-20T07:37:19;8.07;;;7.27;;
11568;SDS011;5840;46.894;15.542;2023-12-20T07:39:46;7.87;;;7.07;;
11568;SDS011;5840;46.894;15.542;2023-12-20T07:42:13;7.87;;;7.07;;
11568;SDS011;5840;46.894;15.542;2023-12-20T07:44:40;7.67;;;6.90;;
11568;SDS011;5840;46.894;15.542;2023-12-20T07:47:07;9.43;;;8.60;;
11568;SDS011;5840;46.894;15.542;2023-12-20T07:49:35;9.40;;;8.50;;
11568;SDS011;5840;46.894;15.542;2023-12-20T07:52:02;9.67;;;8.73;;
11568;SDS011;5840;46.894;15.542;2023-12-20T07:54:29;9.80;;;9.00;;
11568;SDS011;5840;46.894;15.542;2023-12-20T07:56:56;11.77;;;8.63;;
11568;SDS011;5840;46.894;15.542;2023-12-20T07:59:23;10.07;;;9.07;;
11568;SDS011;5840;46.894;15.542;2023-12-20T08:01:50;9.17;;;8.23;;
11568;SDS011;5840;46.894;15.542;2023-12-20T08:04:17;9.70;;;8.80;;
11568;SDS011;5840;46.894;15.542;2023-12-20T08:06:45;8.83;;;8.03;;
11568;SDS011;5840;46.894;15.542;2023-12-20T08:09:12;10.27;;;9.27;;
11568;SDS011;5840;46.894;15.542;2023-12-20T08:11:39;9.93;;;8.97;;
11568;SDS011;5840;46.894;15.542;2023-12-20T08:14:10;9.70;;;8.70;;
11568;SDS011;5840;46.894;15.542;2023-12-20T08:16:37;10.47;;;9.40;;
11568;SDS011;5840;46.894;15.542;2023-12-20T08:19:04;10.10;;;9.17;;
11568;SDS011;5840;46.894;15.542;2023-12-20T08:21:31;10.07;;;9.07;;
11568;SDS011;5840;46.894;15.542;2023-12-20T08:23:59;10.77;;;9.27;;
11568;SDS011;5840;46.894;15.542;2023-12-20T08:26:26;11.07;;;8.87;;
11568;SDS011;5840;46.894;15.542;2023-12-20T08:28:53;9.63;;;8.53;;
11568;SDS011;5840;46.894;15.542;2023-12-20T08:31:20;10.37;;;9.37;;
11568;SDS011;5840;46.894;15.542;2023-12-20T08:33:48;8.83;;;7.97;;
11568;SDS011;5840;46.894;15.542;2023-12-20T08:36:15;8.27;;;7.47;;
11568;SDS011;5840;46.894;15.542;2023-12-20T08:38:43;10.43;;;8.67;;
11568;SDS011;5840;46.894;15.542;2023-12-20T08:41:11;8.90;;;8.10;;
11568;SDS011;5840;46.894;15.542;2023-12-20T08:43:38;8.83;;;7.93;;
11568;SDS011;5840;46.894;15.542;2023-12-20T08:46:05;8.57;;;7.77;;
11568;SDS011;5840;46.894;15.542;2023-12-20T08:48:34;8.53;;;7.83;;
11568;SDS011;5840;46.894;15.542;2023-12-20T08:51:02;9.27;;;8.20;;
11568;SDS011;5840;46.894;15.542;2023-12-20T08:53:29;8.23;;;7.43;;
11568;SDS011;5840;46.894;15.542;2023-12-20T08:55:56;8.33;;;7.53;;
11568;SDS011;5840;46.894;15.542;2023-12-20T08:58:27;8.87;;;8.03;;
11568;SDS011;5840;46.894;15.542;2023-12-20T09:00:54;9.30;;;8.40;;
11568;SDS011;5840;46.894;15.542;2023-12-20T09:03:22;9.57;;;8.53;;
11568;SDS011;5840;46.894;15.542;2023-12-20T09:05:49;9.37;;;8.47;;
11568;SDS011;5840;46.894;15.542;2023-12-20T09:08:16;9.13;;;8.33;;
11568;SDS011;5840;46.894;15.542;2023-12-20T09:10:43;8.33;;;7.20;;
11568;SDS011;5840;46.894;15.542;2023-12-20T09:13:10;7.87;;;7.07;;
11568;SDS011;5840;46.894;15.542;2023-12-20T09:15:38;7.83;;;7.13;;
11568;SDS011;5840;46.894;15.542;2023-12-20T09:18:05;7.80;;;7.10;;
11568;SDS011;5840;46.894;15.542;2023-12-20T09:20:32;7.17;;;6.67;;
11568;SDS011;5840;46.894;15.542;2023-12-20T09:23:00;8.00;;;7.20;;
11568;SDS011;5840;46.894;15.542;2023-12-20T09:25:27;8.23;;;7.43;;
11568;SDS011;5840;46.894;15.542;2023-12-20T09:27:55;7.50;;;6.90;;
11568;SDS011;5840;46.894;15.542;2023-12-20T09:30:21;7.17;;;6.53;;
11568;SDS011;5840;46.894;15.542;2023-12-20T09:32:50;7.80;;;6.80;;
11568;SDS011;5840;46.894;15.542;2023-12-20T09:35:17;7.50;;;6.80;;
11568;SDS011;5840;46.894;15.542;2023-12-20T09:37:44;7.10;;;6.43;;
11568;SDS011;5840;46.894;15.542;2023-12-20T09:40:12;7.70;;;7.00;;
11568;SDS011;5840;46.894;15.542;2023-12-20T09:42:43;6.77;;;6.17;;
11568;SDS011;5840;46.894;15.542;2023-12-20T09:45:17;7.57;;;6.87;;
11568;SDS011;5840;46.894;15.542;2023-12-20T09:47:47;7.10;;;6.40;;
11568;SDS011;5840;46.894;15.542;2023-12-20T09:50:18;7.23;;;6.63;;
11568;SDS011;5840;46.894;15.542;2023-12-20T09:52:47;6.83;;;6.27;;
11568;SDS011;5840;46.894;15.542;2023-12-20T09:55:17;7.57;;;6.90;;
11568;SDS011;5840;46.894;15.542;2023-12-20T09:57:44;9.53;;;8.73;;
11568;SDS011;5840;46.894;15.542;2023-12-20T10:00:11;12.53;;;11.43;;
11568;SDS011;5840;46.894;15.542;2023-12-20T10:02:39;12.50;;;11.40;;
11568;SDS011;5840;46.894;15.542;2023-12-20T10:05:12;6.50;;;5.90;;
11568;SDS011;5840;46.894;15.542;2023-12-20T10:07:44;6.77;;;6.17;;
11568;SDS011;5840;46.894;15.542;2023-12-20T10:10:11;6.50;;;5.90;;
11568;SDS011;5840;46.894;15.542;2023-12-20T10:12:39;5.67;;;5.20;;
11568;SDS011;5840;46.894;15.542;2023-12-20T10:15:07;6.63;;;6.03;;
11568;SDS011;5840;46.894;15.542;2023-12-20T10:17:35;6.60;;;6.00;;
11568;SDS011;5840;46.894;15.542;2023-12-20T10:20:03;5.10;;;4.70;;
11568;SDS011;5840;46.894;15.542;2023-12-20T10:22:36;5.87;;;5.10;;
11568;SDS011;5840;46.894;15.542;2023-12-20T10:25:04;7.53;;;6.67;;
11568;SDS011;5840;46.894;15.542;2023-12-20T10:27:32;6.60;;;5.80;;
11568;SDS011;5840;46.894;15.542;2023-12-20T10:29:59;5.57;;;5.07;;
11568;SDS011;5840;46.894;15.542;2023-12-20T10:32:26;5.40;;;5.00;;
11568;SDS011;5840;46.894;15.542;2023-12-20T10:34:54;6.93;;;6.33;;
11568;SDS011;5840;46.894;15.542;2023-12-20T10:37:21;8.60;;;6.70;;
11568;SDS011;5840;46.894;15.542;2023-12-20T10:39:50;6.77;;;6.10;;
11568;SDS011;5840;46.894;15.542;2023-12-20T10:42:21;6.70;;;6.10;;
11568;SDS011;5840;46.894;15.542;2023-12-20T10:44:48;6.50;;;5.93;;
11568;SDS011;5840;46.894;15.542;2023-12-20T10:47:16;6.73;;;6.13;;
11568;SDS011;5840;46.894;15.542;2023-12-20T10:49:43;6.47;;;5.90;;
11568;SDS011;5840;46.894;15.542;2023-12-20T10:52:13;6.67;;;6.17;;
11568;SDS011;5840;46.894;15.542;2023-12-20T10:54:40;7.00;;;6.40;;
11568;SDS011;5840;46.894;15.542;2023-12-20T10:57:08;6.73;;;5.80;;
11568;SDS011;5840;46.894;15.542;2023-12-20T10:59:36;5.93;;;5.50;;
11568;SDS011;5840;46.894;15.542;2023-12-20T11:02:04;7.47;;;6.70;;
11568;SDS011;5840;46.894;15.542;2023-12-20T11:04:34;10.03;;;9.13;;
11568;SDS011;5840;46.894;15.542;2023-12-20T11:07:07;10.70;;;9.70;;
11568;SDS011;5840;46.894;15.542;2023-12-20T11:09:45;11.57;;;10.53;;
11568;SDS011;5840;46.894;15.542;2023-12-20T11:12:22;7.83;;;7.13;;
11568;SDS011;5840;46.894;15.542;2023-12-20T11:14:58;8.10;;;7.33;;
11568;SDS011;5840;46.894;15.542;2023-12-20T11:17:29;6.13;;;5.60;;
11568;SDS011;5840;46.894;15.542;2023-12-20T11:20:04;11.63;;;10.53;;
11568;SDS011;5840;46.894;15.542;2023-12-20T11:22:36;13.50;;;12.20;;
11568;SDS011;5840;46.894;15.542;2023-12-20T11:25:07;11.93;;;10.73;;
11568;SDS011;5840;46.894;15.542;2023-12-20T11:27:36;11.93;;;10.83;;
11568;SDS011;5840;46.894;15.542;2023-12-20T11:30:07;11.27;;;10.20;;
11568;SDS011;5840;46.894;15.542;2023-12-20T11:32:35;7.73;;;7.03;;
11568;SDS011;5840;46.894;15.542;2023-12-20T11:35:16;6.93;;;6.23;;
11568;SDS011;5840;46.894;15.542;2023-12-20T11:37:45;6.87;;;6.27;;
11568;SDS011;5840;46.894;15.542;2023-12-20T11:40:13;6.57;;;5.97;;
11568;SDS011;5840;46.894;15.542;2023-12-20T11:42:43;5.40;;;4.90;;
11568;SDS011;5840;46.894;15.542;2023-12-20T11:45:13;7.70;;;6.90;;
11568;SDS011;5840;46.894;15.542;2023-12-20T11:47:42;9.57;;;8.77;;
11568;SDS011;5840;46.894;15.542;2023-12-20T11:50:10;9.87;;;8.87;;
11568;SDS011;5840;46.894;15.542;2023-12-20T11:52:37;8.27;;;7.57;;
11568;SDS011;5840;46.894;15.542;2023-12-20T11:55:04;10.73;;;9.80;;
11568;SDS011;5840;46.894;15.542;2023-12-20T11:57:32;9.83;;;9.03;;
11568;SDS011;5840;46.894;15.542;2023-12-20T12:00:01;9.43;;;8.53;;
11568;SDS011;5840;46.894;15.542;2023-12-20T12:02:28;9.73;;;8.83;;
11568;SDS011;5840;46.894;15.542;2023-12-20T12:04:56;9.53;;;8.73;;
11568;SDS011;5840;46.894;15.542;2023-12-20T12:07:23;7.10;;;6.50;;
11568;SDS011;5840;46.894;15.542;2023-12-20T12:09:50;9.53;;;8.63;;
11568;SDS011;5840;46.894;15.542;2023-12-20T12:12:17;14.07;;;12.77;;
11568;SDS011;5840;46.894;15.542;2023-12-20T12:14:45;13.70;;;12.60;;
11568;SDS011;5840;46.894;15.542;2023-12-20T12:17:13;12.67;;;11.57;;
11568;SDS011;5840;46.894;15.542;2023-12-20T12:19:42;11.87;;;10.77;;
11568;SDS011;5840;46.894;15.542;2023-12-20T12:22:15;12.43;;;11.23;;
11568;SDS011;5840;46.894;15.542;2023-12-20T12:24:44;13.30;;;11.40;;
11568;SDS011;5840;46.894;15.542;2023-12-20T12:27:12;14.33;;;13.03;;
11568;SDS011;5840;46.894;15.542;2023-12-20T12:29:40;14.90;;;13.60;;
11568;SDS011;5840;46.894;15.542;2023-12-20T12:32:08;16.03;;;14.53;;
11568;SDS011;5840;46.894;15.542;2023-12-20T12:34:37;13.30;;;12.00;;
11568;SDS011;5840;46.894;15.542;2023-12-20T12:37:04;14.57;;;13.17;;
11568;SDS011;5840;46.894;15.542;2023-12-20T12:39:31;15.03;;;13.43;;
11568;SDS011;5840;46.894;15.542;2023-12-20T12:41:57;12.40;;;11.30;;
11568;SDS011;5840;46.894;15.542;2023-12-20T12:44:25;16.57;;;14.90;;
11568;SDS011;5840;46.894;15.542;2023-12-20T12:46:52;18.23;;;16.17;;
11568;SDS011;5840;46.894;15.542;2023-12-20T12:49:19;17.77;;;15.30;;
11568;SDS011;5840;46.894;15.542;2023-12-20T12:51:48;12.30;;;11.10;;
11568;SDS011;5840;46.894;15.542;2023-12-20T12:54:15;12.43;;;11.23;;
11568;SDS011;5840;46.894;15.542;2023-12-20T12:56:43;13.53;;;12.33;;
11568;SDS011;5840;46.894;15.542;2023-12-20T12:59:12;13.53;;;12.23;;
11568;SDS011;5840;46.894;15.542;2023-12-20T13:01:39;11.80;;;10.70;;
11568;SDS011;5840;46.894;15.542;2023-12-20T13:04:06;13.63;;;12.20;;
11568;SDS011;5840;46.894;15.542;2023-12-20T13:06:35;14.83;;;13.33;;
11568;SDS011;5840;46.894;15.542;2023-12-20T13:09:04;15.30;;;12.73;;
11568;SDS011;5840;46.894;15.542;2023-12-20T13:11:31;13.63;;;12.33;;
11568;SDS011;5840;46.894;15.542;2023-12-20T13:13:58;13.83;;;12.30;;
11568;SDS011;5840;46.894;15.542;2023-12-20T13:16:25;12.13;;;11.03;;
11568;SDS011;5840;46.894;15.542;2023-12-20T13:18:52;11.50;;;10.50;;
11568;SDS011;5840;46.894;15.542;2023-12-20T13:21:19;12.53;;;11.23;;
11568;SDS011;5840;46.894;15.542;2023-12-20T13:23:46;11.83;;;10.27;;
11568;SDS011;5840;46.894;15.542;2023-12-20T13:26:14;10.77;;;9.83;;
11568;SDS011;5840;46.894;15.542;2023-12-20T13:28:41;9.57;;;8.67;;
11568;SDS011;5840;46.894;15.542;2023-12-20T13:31:08;10.63;;;9.60;;
11568;SDS011;5840;46.894;15.542;2023-12-20T13:33:35;11.87;;;10.63;;
11568;SDS011;5840;46.894;15.542;2023-12-20T13:36:03;12.70;;;11.33;;
11568;SDS011;5840;46.894;15.542;2023-12-20T13:38:31;12.23;;;11.10;;
11568;SDS011;5840;46.894;15.542;2023-12-20T13:40:58;11.23;;;10.03;;
11568;SDS011;5840;46.894;15.542;2023-12-20T13:43:26;11.90;;;10.70;;
11568;SDS011;5840;46.894;15.542;2023-12-20T13:45:53;11.70;;;10.53;;
11568;SDS011;5840;46.894;15.542;2023-12-20T13:48:21;12.30;;;10.97;;
11568;SDS011;5840;46.894;15.542;2023-12-20T13:50:48;11.40;;;10.20;;
11568;SDS011;5840;46.894;15.542;2023-12-20T13:53:15;9.90;;;8.90;;
11568;SDS011;5840;46.894;15.542;2023-12-20T13:55:42;9.97;;;9.03;;
11568;SDS011;5840;46.894;15.542;2023-12-20T13:58:08;10.33;;;9.30;;
11568;SDS011;5840;46.894;15.542;2023-12-20T14:00:37;10.80;;;9.80;;
11568;SDS011;5840;46.894;15.542;2023-12-20T14:03:04;11.03;;;9.93;;
11568;SDS011;5840;46.894;15.542;2023-12-20T14:05:32;11.43;;;10.27;;
11568;SDS011;5840;46.894;15.542;2023-12-20T14:07:59;12.83;;;11.63;;
11568;SDS011;5840;46.894;15.542;2023-12-20T14:10:25;15.30;;;13.90;;
11568;SDS011;5840;46.894;15.542;2023-12-20T14:12:53;13.50;;;12.13;;
11568;SDS011;5840;46.894;15.542;2023-12-20T14:15:20;12.03;;;10.83;;
11568;SDS011;5840;46.894;15.542;2023-12-20T14:17:48;11.00;;;10.00;;
11568;SDS011;5840;46.894;15.542;2023-12-20T14:20:15;11.80;;;9.63;;
11568;SDS011;5840;46.894;15.542;2023-12-20T14:22:43;10.60;;;9.70;;
11568;SDS011;5840;46.894;15.542;2023-12-20T14:25:10;10.70;;;9.70;;
11568;SDS011;5840;46.894;15.542;2023-12-20T14:27:37;9.67;;;8.77;;
11568;SDS011;5840;46.894;15.542;2023-12-20T14:30:06;10.40;;;9.43;;
11568;SDS011;5840;46.894;15.542;2023-12-20T14:32:34;10.20;;;9.13;;
11568;SDS011;5840;46.894;15.542;2023-12-20T14:35:05;9.80;;;8.87;;
11568;SDS011;5840;46.894;15.542;2023-12-20T14:37:33;9.60;;;8.80;;
11568;SDS011;5840;46.894;15.542;2023-12-20T14:40:00;10.90;;;9.90;;
11568;SDS011;5840;46.894;15.542;2023-12-20T14:42:27;10.87;;;9.87;;